sensor_id;sensor_type;location;lat;lon;timestamp;temperature;humidity
20985;DHT22;10651;47.552;7.606;2024-01-25T15:50:03;13.70;99.90
20985;DHT22;10651;47.552;7.606;2024-01-25T15:57:03;13.60;99.90
20985;DHT22;10651;47.552;7.606;2024-01-25T16:11:07;13.60;99.90
20985;DHT22;10651;47.552;7.606;2024-01-25T16:14:02;13.60;99.90
20985;DHT22;10651;47.552;7.606;2024-01-25T16:16:58;13.50;99.90
20985;DHT22;10651;47.552;7.606;2024-01-25T16:20:32;13.50;99.90
20985;DHT22;10651;47.552;7.606;2024-01-25T16:23:33;13.40;99.90
20985;DHT22;10651;47.552;7.606;2024-01-25T16:26:04;13.40;99.90
20985;DHT22;10651;47.552;7.606;2024-01-25T16:34:51;13.40;99.90
20985;DHT22;10651;47.552;7.606;2024-01-25T16:37:29;13.30;99.90
20985;DHT22;10651;47.552;7.606;2024-01-25T16:40:08;13.30;99.90
20985;DHT22;10651;47.552;7.606;2024-01-25T16:43:25;13.30;99.90
20985;DHT22;10651;47.552;7.606;2024-01-25T16:54:21;13.30;99.90
20985;DHT22;10651;47.552;7.606;2024-01-25T16:57:18;13.40;99.90
20985;DHT22;10651;47.552;7.606;2024-01-25T16:59:43;13.30;99.90
20985;DHT22;10651;47.552;7.606;2024-01-25T17:02:09;13.40;99.90
20985;DHT22;10651;47.552;7.606;2024-01-25T17:04:35;13.40;99.90
20985;DHT22;10651;47.552;7.606;2024-01-25T17:07:00;13.50;99.90
20985;DHT22;10651;47.552;7.606;2024-01-25T17:09:26;13.50;99.90
20985;DHT22;10651;47.552;7.606;2024-01-25T17:11:52;13.50;99.90
20985;DHT22;10651;47.552;7.606;2024-01-25T17:31:02;13.20;99.90
20985;DHT22;10651;47.552;7.606;2024-01-25T17:33:31;13.20;99.90
20985;DHT22;10651;47.552;7.606;2024-01-25T17:35:59;13.20;99.90
20985;DHT22;10651;47.552;7.606;2024-01-25T17:38:26;13.20;99.90
20985;DHT22;10651;47.552;7.606;2024-01-25T17:40:51;13.20;99.90
20985;DHT22;10651;47.552;7.606;2024-01-25T17:43:17;13.20;99.90
20985;DHT22;10651;47.552;7.606;2024-01-25T17:45:43;13.20;99.90
20985;DHT22;10651;47.552;7.606;2024-01-25T17:48:08;13.20;99.90
20985;DHT22;10651;47.552;7.606;2024-01-25T17:50:34;13.20;99.90
20985;DHT22;10651;47.552;7.606;2024-01-25T17:53:01;13.20;99.90
20985;DHT22;10651;47.552;7.606;2024-01-25T17:55:27;13.20;99.90
20985;DHT22;10651;47.552;7.606;2024-01-25T17:57:53;13.30;99.90
20985;DHT22;10651;47.552;7.606;2024-01-25T18:00:19;13.30;99.90
20985;DHT22;10651;47.552;7.606;2024-01-25T18:02:45;13.20;99.90
20985;DHT22;10651;47.552;7.606;2024-01-25T18:05:10;13.20;99.90
20985;DHT22;10651;47.552;7.606;2024-01-25T18:07:36;13.20;99.90
20985;DHT22;10651;47.552;7.606;2024-01-25T18:10:02;13.30;99.90
20985;DHT22;10651;47.552;7.606;2024-01-25T18:12:28;13.10;99.90
20985;DHT22;10651;47.552;7.606;2024-01-25T18:14:53;13.20;99.90
20985;DHT22;10651;47.552;7.606;2024-01-25T18:17:22;13.20;99.90
20985;DHT22;10651;47.552;7.606;2024-01-25T18:19:58;13.10;99.90
20985;DHT22;10651;47.552;7.606;2024-01-25T18:22:24;13.10;99.90
20985;DHT22;10651;47.552;7.606;2024-01-25T18:25:01;13.10;99.90
20985;DHT22;10651;47.552;7.606;2024-01-25T18:27:51;13.00;99.90
20985;DHT22;10651;47.552;7.606;2024-01-25T18:30:50;13.10;99.90
20985;DHT22;10651;47.552;7.606;2024-01-25T18:33:54;13.10;99.90
20985;DHT22;10651;47.552;7.606;2024-01-25T18:36:20;13.10;99.90
20985;DHT22;10651;47.552;7.606;2024-01-25T18:38:45;13.10;99.90
20985;DHT22;10651;47.552;7.606;2024-01-25T18:41:13;13.20;99.90
20985;DHT22;10651;47.552;7.606;2024-01-25T18:43:39;13.20;99.90
20985;DHT22;10651;47.552;7.606;2024-01-25T18:46:08;13.00;99.90
20985;DHT22;10651;47.552;7.606;2024-01-25T18:48:34;12.80;99.90
20985;DHT22;10651;47.552;7.606;2024-01-25T18:50:59;12.70;99.90
20985;DHT22;10651;47.552;7.606;2024-01-25T18:53:29;12.70;99.90
20985;DHT22;10651;47.552;7.606;2024-01-25T18:55:55;12.70;99.90
20985;DHT22;10651;47.552;7.606;2024-01-25T18:58:21;12.70;99.90
20985;DHT22;10651;47.552;7.606;2024-01-25T19:00:49;12.80;99.90
20985;DHT22;10651;47.552;7.606;2024-01-25T19:14:25;12.90;99.90
20985;DHT22;10651;47.552;7.606;2024-01-25T19:28:23;12.90;99.90
20985;DHT22;10651;47.552;7.606;2024-01-25T19:31:26;12.90;99.90
20985;DHT22;10651;47.552;7.606;2024-01-25T19:44:48;12.70;99.90
20985;DHT22;10651;47.552;7.606;2024-01-25T19:47:14;12.70;99.90
20985;DHT22;10651;47.552;7.606;2024-01-25T19:49:40;12.70;99.90
20985;DHT22;10651;47.552;7.606;2024-01-25T19:52:05;12.70;99.90
20985;DHT22;10651;47.552;7.606;2024-01-25T19:54:31;12.50;99.90
20985;DHT22;10651;47.552;7.606;2024-01-25T19:56:57;12.30;99.90
20985;DHT22;10651;47.552;7.606;2024-01-25T19:59:23;12.30;99.90
20985;DHT22;10651;47.552;7.606;2024-01-25T20:01:49;12.30;99.90
20985;DHT22;10651;47.552;7.606;2024-01-25T20:04:16;12.40;99.90
20985;DHT22;10651;47.552;7.606;2024-01-25T20:06:42;12.50;99.90
20985;DHT22;10651;47.552;7.606;2024-01-25T20:09:11;12.40;99.90
20985;DHT22;10651;47.552;7.606;2024-01-25T20:15:27;12.40;99.90
20985;DHT22;10651;47.552;7.606;2024-01-25T20:22:03;12.50;99.90
20985;DHT22;10651;47.552;7.606;2024-01-25T20:24:34;12.50;99.90
20985;DHT22;10651;47.552;7.606;2024-01-25T20:30:57;12.50;99.90
20985;DHT22;10651;47.552;7.606;2024-01-25T20:33:43;12.50;99.90
20985;DHT22;10651;47.552;7.606;2024-01-25T20:44:00;12.40;99.90
20985;DHT22;10651;47.552;7.606;2024-01-25T20:46:28;12.20;99.90
20985;DHT22;10651;47.552;7.606;2024-01-25T20:48:54;12.10;99.90
20985;DHT22;10651;47.552;7.606;2024-01-25T20:51:20;12.10;99.90
20985;DHT22;10651;47.552;7.606;2024-01-25T20:53:46;12.10;99.90
20985;DHT22;10651;47.552;7.606;2024-01-25T20:56:13;12.10;99.90
20985;DHT22;10651;47.552;7.606;2024-01-25T20:58:38;12.10;99.90
20985;DHT22;10651;47.552;7.606;2024-01-25T21:01:04;12.00;99.90
20985;DHT22;10651;47.552;7.606;2024-01-25T21:03:31;12.00;99.90
20985;DHT22;10651;47.552;7.606;2024-01-25T21:05:57;12.10;99.90
20985;DHT22;10651;47.552;7.606;2024-01-25T21:08:23;12.00;99.90
20985;DHT22;10651;47.552;7.606;2024-01-25T21:10:49;11.90;99.90
20985;DHT22;10651;47.552;7.606;2024-01-25T21:13:15;12.00;99.90
20985;DHT22;10651;47.552;7.606;2024-01-25T21:15:44;12.20;99.90
20985;DHT22;10651;47.552;7.606;2024-01-25T21:18:10;12.20;99.90
20985;DHT22;10651;47.552;7.606;2024-01-25T21:20:35;12.10;99.90
20985;DHT22;10651;47.552;7.606;2024-01-25T21:23:01;12.00;99.90
20985;DHT22;10651;47.552;7.606;2024-01-25T21:25:27;12.10;99.90
20985;DHT22;10651;47.552;7.606;2024-01-25T21:27:53;12.10;99.90
20985;DHT22;10651;47.552;7.606;2024-01-25T21:30:18;12.00;99.90
20985;DHT22;10651;47.552;7.606;2024-01-25T21:32:44;12.10;99.90
20985;DHT22;10651;47.552;7.606;2024-01-25T21:35:10;12.10;99.90
20985;DHT22;10651;47.552;7.606;2024-01-25T21:37:36;12.00;99.90
20985;DHT22;10651;47.552;7.606;2024-01-25T21:40:05;12.00;99.90
20985;DHT22;10651;47.552;7.606;2024-01-25T21:42:31;12.10;99.90
20985;DHT22;10651;47.552;7.606;2024-01-25T21:45:05;12.00;99.90
20985;DHT22;10651;47.552;7.606;2024-01-25T21:47:34;12.00;99.90
20985;DHT22;10651;47.552;7.606;2024-01-25T21:50:00;12.00;99.90
20985;DHT22;10651;47.552;7.606;2024-01-25T21:52:29;12.00;99.90
20985;DHT22;10651;47.552;7.606;2024-01-25T21:54:55;12.00;99.90
20985;DHT22;10651;47.552;7.606;2024-01-25T21:57:21;12.20;99.90
20985;DHT22;10651;47.552;7.606;2024-01-25T22:14:14;12.10;99.90
20985;DHT22;10651;47.552;7.606;2024-01-25T22:17:30;12.10;99.90
20985;DHT22;10651;47.552;7.606;2024-01-25T22:45:42;12.00;99.90
20985;DHT22;10651;47.552;7.606;2024-01-25T22:48:30;11.90;99.90
20985;DHT22;10651;47.552;7.606;2024-01-25T23:01:48;11.90;99.90
20985;DHT22;10651;47.552;7.606;2024-01-25T23:11:42;11.80;99.90
20985;DHT22;10651;47.552;7.606;2024-01-25T23:14:52;11.80;99.90
